createdAt,value
2023-04-17T00:02:20.542Z,21.59
2023-04-17T00:04:54.058Z,21.94
2023-04-17T00:07:25.800Z,21.51
2023-04-17T00:09:57.125Z,21.34
2023-04-17T00:12:28.443Z,21.58
2023-04-17T00:14:59.686Z,21.91
2023-04-17T00:17:30.762Z,22.04
2023-04-17T00:20:02.291Z,22.30
2023-04-17T00:22:35.444Z,21.79
2023-04-17T00:25:06.987Z,21.76
2023-04-17T00:27:38.866Z,22.34
2023-04-17T00:30:10.912Z,23.35
2023-04-17T00:32:42.751Z,22.23
2023-04-17T00:35:14.475Z,21.32
2023-04-17T00:37:45.940Z,21.08
2023-04-17T00:40:17.945Z,21.50
2023-04-17T00:42:54.514Z,21.54
2023-04-17T00:45:26.092Z,21.50
2023-04-17T00:47:57.994Z,21.53
2023-04-17T00:50:30.472Z,21.74
2023-04-17T00:53:02.459Z,22.54
2023-04-17T00:55:34.891Z,23.96
2023-04-17T00:58:06.225Z,23.56
2023-04-17T01:00:37.739Z,23.75
2023-04-17T01:03:09.971Z,23.82
2023-04-17T01:05:42.388Z,23.90
2023-04-17T01:08:13.645Z,24.83
2023-04-17T01:10:45.051Z,23.84
2023-04-17T01:13:16.275Z,24.90
2023-04-17T01:15:48.349Z,23.63
2023-04-17T01:18:19.757Z,23.12
2023-04-17T01:20:51.077Z,23.41
2023-04-17T01:23:22.589Z,23.30
2023-04-17T01:25:54.360Z,23.90
2023-04-17T01:28:27.678Z,23.80
2023-04-17T01:30:58.775Z,22.90
2023-04-17T01:33:30.777Z,22.37
2023-04-17T01:36:01.953Z,23.21
2023-04-17T01:38:33.473Z,23.18
2023-04-17T01:41:11.184Z,23.39
2023-04-17T01:43:45.747Z,24.38
2023-04-17T01:46:17.435Z,23.78
2023-04-17T01:48:49.377Z,23.58
2023-04-17T01:51:20.731Z,23.55
2023-04-17T01:53:52.734Z,22.93
2023-04-17T01:56:24.329Z,22.20
2023-04-17T01:58:54.965Z,22.34
2023-04-17T02:01:26.215Z,22.28
2023-04-17T02:03:57.851Z,21.80
2023-04-17T02:06:29.307Z,21.81
2023-04-17T02:09:01.097Z,21.90
2023-04-17T02:11:32.772Z,21.34
2023-04-17T02:14:04.357Z,21.04
2023-04-17T02:16:36.215Z,20.70
2023-04-17T02:19:08.010Z,20.43
2023-04-17T02:21:39.226Z,20.23
2023-04-17T02:24:10.616Z,20.38
2023-04-17T02:26:42.235Z,20.65
2023-04-17T02:29:16.460Z,20.69
2023-04-17T02:31:48.092Z,21.77
2023-04-17T02:34:19.718Z,21.68
2023-04-17T02:36:54.134Z,22.92
2023-04-17T02:39:28.715Z,21.94
2023-04-17T02:42:00.781Z,22.10
2023-04-17T02:44:32.071Z,20.81
2023-04-17T02:47:03.420Z,21.34
2023-04-17T02:49:37.080Z,20.75
2023-04-17T02:52:08.563Z,20.43
2023-04-17T02:54:39.677Z,20.55
2023-04-17T02:57:12.248Z,20.45
2023-04-17T02:59:43.676Z,20.63
2023-04-17T03:02:15.986Z,20.78
2023-04-17T03:04:47.342Z,20.76
2023-04-17T03:07:24.988Z,20.75
2023-04-17T03:09:58.875Z,20.51
2023-04-17T03:12:30.257Z,20.62
2023-04-17T03:15:01.574Z,20.90
2023-04-17T03:17:34.353Z,21.08
2023-04-17T03:20:05.965Z,20.71
2023-04-17T03:22:38.286Z,21.12
2023-04-17T03:25:10.858Z,20.76
2023-04-17T03:27:50.556Z,20.66
2023-04-17T03:30:23.846Z,20.69
2023-04-17T03:32:57.835Z,20.60
2023-04-17T03:35:33.227Z,20.38
2023-04-17T03:38:08.989Z,20.13
2023-04-17T03:40:40.505Z,19.96
2023-04-17T03:43:12.624Z,20.06
2023-04-17T03:45:44.178Z,20.04
2023-04-17T03:48:15.654Z,20.01
2023-04-17T03:50:49.750Z,19.85
2023-04-17T03:53:21.557Z,20.05
2023-04-17T03:55:53.706Z,20.22
2023-04-17T03:58:30.264Z,20.38
2023-04-17T04:01:03.714Z,20.11
2023-04-17T04:03:40.422Z,20.18
2023-04-17T04:06:12.576Z,19.98
2023-04-17T04:08:44.270Z,19.83
2023-04-17T04:11:15.892Z,20.04
2023-04-17T04:13:47.505Z,20.13
2023-04-17T04:16:18.877Z,19.95
2023-04-17T04:18:50.162Z,19.98
2023-04-17T04:21:22.301Z,19.61
2023-04-17T04:23:54.804Z,19.94
2023-04-17T04:26:26.073Z,19.89
2023-04-17T04:28:59.298Z,19.90
2023-04-17T04:32:00.579Z,19.84
2023-04-17T04:34:37.956Z,19.90
2023-04-17T04:37:09.758Z,19.71
2023-04-17T04:39:48.595Z,19.96
2023-04-17T04:42:23.636Z,19.98
2023-04-17T04:45:08.342Z,19.93
2023-04-17T04:47:39.824Z,19.84
2023-04-17T04:50:11.094Z,19.93
2023-04-17T04:52:42.651Z,19.72
2023-04-17T04:55:29.378Z,19.59
2023-04-17T04:58:00.297Z,19.63
2023-04-17T05:00:31.679Z,19.55
2023-04-17T05:03:05.112Z,19.73
2023-04-17T05:05:37.512Z,19.81
2023-04-17T05:08:08.325Z,19.57
2023-04-17T05:10:40.724Z,19.51
2023-04-17T05:13:11.786Z,19.60
2023-04-17T05:15:43.173Z,19.54
2023-04-17T05:18:14.985Z,19.50
2023-04-17T05:20:47.091Z,19.58
2023-04-17T05:23:17.982Z,19.62
2023-04-17T05:25:52.286Z,19.60
2023-04-17T05:28:23.945Z,19.41
2023-04-17T05:30:58.776Z,19.45
2023-04-17T05:33:40.589Z,19.40
2023-04-17T05:36:12.178Z,19.40
2023-04-17T05:38:46.154Z,19.37
2023-04-17T05:41:17.996Z,19.37
2023-04-17T05:43:49.392Z,19.32
2023-04-17T05:46:21.693Z,19.12
2023-04-17T05:48:53.287Z,19.19
2023-04-17T05:51:24.649Z,19.11
2023-04-17T05:53:56.058Z,18.85
2023-04-17T05:56:27.525Z,18.89
2023-04-17T05:59:00.129Z,18.93
2023-04-17T06:01:32.616Z,18.93
2023-04-17T06:04:04.437Z,18.86
2023-04-17T06:06:35.256Z,18.81
2023-04-17T06:09:08.645Z,18.69
2023-04-17T06:11:40.256Z,18.62
2023-04-17T06:14:11.568Z,18.64
2023-04-17T06:16:42.727Z,18.55
2023-04-17T06:19:14.299Z,18.53
2023-04-17T06:21:44.996Z,18.44
2023-04-17T06:24:16.257Z,18.45
2023-04-17T06:26:51.663Z,18.39
2023-04-17T06:29:22.929Z,18.41
2023-04-17T06:31:54.623Z,18.36
2023-04-17T06:34:25.644Z,18.36
2023-04-17T06:36:57.835Z,18.36
2023-04-17T06:39:28.883Z,18.33
2023-04-17T06:42:00.899Z,18.31
2023-04-17T06:44:32.391Z,18.34
2023-04-17T06:47:06.330Z,18.33
2023-04-17T06:49:40.117Z,18.27
2023-04-17T06:52:11.147Z,18.32
2023-04-17T06:54:42.464Z,18.38
2023-04-17T06:57:13.978Z,18.38
2023-04-17T06:59:46.156Z,18.39
2023-04-17T07:02:18.005Z,18.33
2023-04-17T07:04:49.301Z,18.38
2023-04-17T07:07:20.583Z,18.42
2023-04-17T07:09:52.035Z,18.40
2023-04-17T07:12:24.319Z,18.37
2023-04-17T07:14:55.919Z,18.37
2023-04-17T07:17:28.608Z,18.40
2023-04-17T07:19:59.882Z,18.40
2023-04-17T07:22:34.085Z,18.32
2023-04-17T07:25:07.091Z,18.36
2023-04-17T07:27:39.761Z,18.29
2023-04-17T07:30:11.514Z,18.29
2023-04-17T07:32:43.295Z,18.35
2023-04-17T07:35:14.437Z,18.32
2023-04-17T07:37:45.782Z,18.29
2023-04-17T07:40:18.778Z,18.27
2023-04-17T07:42:50.056Z,18.31
2023-04-17T07:45:22.438Z,18.27
2023-04-17T07:47:55.005Z,18.20
2023-04-17T07:50:26.567Z,18.19
2023-04-17T07:52:58.049Z,18.24
2023-04-17T07:55:29.503Z,18.20
2023-04-17T07:58:03.177Z,18.11
2023-04-17T08:00:34.940Z,18.11
2023-04-17T08:03:07.740Z,18.05
2023-04-17T08:05:39.610Z,18.35
2023-04-17T08:08:11.949Z,18.25
2023-04-17T08:10:43.260Z,18.11
2023-04-17T08:13:14.728Z,18.08
2023-04-17T08:15:46.924Z,17.81
2023-04-17T08:18:18.412Z,17.58
2023-04-17T08:20:50.000Z,17.33
2023-04-17T08:23:21.407Z,17.26
2023-04-17T08:25:52.755Z,17.05
2023-04-17T08:28:24.349Z,16.75
2023-04-17T08:30:55.935Z,16.73
2023-04-17T08:33:28.633Z,16.79
2023-04-17T08:36:01.444Z,16.77
2023-04-17T08:38:34.317Z,16.81
2023-04-17T08:41:09.590Z,16.85
2023-04-17T08:43:42.608Z,16.66
2023-04-17T08:46:13.801Z,16.72
2023-04-17T08:48:45.647Z,16.78
2023-04-17T08:51:17.089Z,16.76
2023-04-17T08:53:48.220Z,16.73
2023-04-17T08:56:19.499Z,16.72
2023-04-17T08:58:50.959Z,16.67
2023-04-17T09:01:23.091Z,16.68
2023-04-17T09:03:55.018Z,16.66
2023-04-17T09:06:26.582Z,16.81
2023-04-17T09:09:00.640Z,16.76
2023-04-17T09:11:32.767Z,16.76
2023-04-17T09:14:03.083Z,16.71
2023-04-17T09:16:35.827Z,16.80
2023-04-17T09:19:09.445Z,16.86
2023-04-17T09:21:41.222Z,16.87
2023-04-17T09:24:12.624Z,16.97
2023-04-17T09:26:44.212Z,16.95
2023-04-17T09:29:16.276Z,16.95
2023-04-17T09:31:49.210Z,16.94
2023-04-17T09:34:22.264Z,17.00
2023-04-17T09:36:57.265Z,16.95
2023-04-17T09:39:28.497Z,17.04
2023-04-17T09:42:08.510Z,17.05
2023-04-17T09:44:41.912Z,17.01
2023-04-17T09:47:14.132Z,17.16
2023-04-17T09:49:53.910Z,17.05
2023-04-17T09:52:26.283Z,16.92
2023-04-17T09:54:58.242Z,16.87
2023-04-17T09:57:29.544Z,16.88
2023-04-17T10:00:02.899Z,16.73
2023-04-17T10:02:38.295Z,16.75
2023-04-17T10:05:10.826Z,16.64
2023-04-17T10:07:42.582Z,16.64
2023-04-17T10:10:14.076Z,16.72
2023-04-17T10:12:45.272Z,16.72
2023-04-17T10:15:17.439Z,16.63
2023-04-17T10:17:48.889Z,16.55
2023-04-17T10:20:21.429Z,16.53
2023-04-17T10:22:57.677Z,16.52
2023-04-17T10:25:30.273Z,16.62
2023-04-17T10:28:05.106Z,16.59
2023-04-17T10:30:55.867Z,16.66
2023-04-17T10:33:28.637Z,16.61
2023-04-17T10:36:00.153Z,16.53
2023-04-17T10:38:37.537Z,16.51
2023-04-17T10:41:12.611Z,16.58
2023-04-17T10:43:46.113Z,16.51
2023-04-17T10:46:17.798Z,16.47
2023-04-17T10:48:54.037Z,16.49
2023-04-17T10:51:25.864Z,16.46
2023-04-17T10:54:05.195Z,16.48
2023-04-17T10:56:44.755Z,16.43
2023-04-17T10:59:21.006Z,16.45
2023-04-17T11:01:52.743Z,16.38
2023-04-17T11:04:27.255Z,16.32
2023-04-17T11:06:58.347Z,16.26
2023-04-17T11:09:31.072Z,16.30
2023-04-17T11:12:05.586Z,16.25
2023-04-17T11:14:37.257Z,16.33
2023-04-17T11:17:07.699Z,16.35
2023-04-17T11:19:39.402Z,16.32
2023-04-17T11:22:12.868Z,16.39
2023-04-17T11:24:44.035Z,16.18
2023-04-17T11:27:16.189Z,15.83
2023-04-17T11:29:47.680Z,15.91
2023-04-17T11:32:19.402Z,15.81
2023-04-17T11:34:51.033Z,15.81
2023-04-17T11:37:21.991Z,15.56
2023-04-17T11:39:53.591Z,15.50
2023-04-17T11:42:30.749Z,15.61
2023-04-17T11:45:10.141Z,15.67
2023-04-17T11:47:41.638Z,15.74
2023-04-17T11:50:13.085Z,15.74
2023-04-17T11:52:46.651Z,15.77
2023-04-17T11:55:19.009Z,15.76
2023-04-17T11:57:54.121Z,15.72
2023-04-17T12:00:30.509Z,15.74
2023-04-17T12:03:03.919Z,15.87
2023-04-17T12:05:35.270Z,15.87
2023-04-17T12:08:08.933Z,15.97
2023-04-17T12:10:44.169Z,16.01
2023-04-17T12:13:16.210Z,15.82
2023-04-17T12:15:47.997Z,16.04
2023-04-17T12:18:19.182Z,15.88
2023-04-17T12:20:50.582Z,15.95
2023-04-17T12:23:22.004Z,15.78
2023-04-17T12:25:53.158Z,15.73
2023-04-17T12:28:24.849Z,15.82
2023-04-17T12:30:56.421Z,15.83
2023-04-17T12:33:28.097Z,15.87
2023-04-17T12:35:59.914Z,15.98
2023-04-17T12:38:33.852Z,15.98
2023-04-17T12:41:05.336Z,15.81
2023-04-17T12:43:38.533Z,16.01
2023-04-17T12:46:09.930Z,16.06
2023-04-17T12:48:41.051Z,16.12
2023-04-17T12:51:12.105Z,16.10
2023-04-17T12:53:43.225Z,16.10
2023-04-17T12:56:14.471Z,16.11
2023-04-17T12:58:45.890Z,16.11
2023-04-17T13:01:16.834Z,16.17
2023-04-17T13:03:48.555Z,16.17
2023-04-17T13:06:19.795Z,16.17
2023-04-17T13:08:51.161Z,16.22
2023-04-17T13:11:23.444Z,16.21
2023-04-17T13:13:54.718Z,16.20
2023-04-17T13:16:26.399Z,16.31
2023-04-17T13:18:57.753Z,16.44
2023-04-17T13:21:29.218Z,16.35
2023-04-17T13:24:00.560Z,16.38
2023-04-17T13:26:32.055Z,16.33
2023-04-17T13:29:03.009Z,16.44
2023-04-17T13:31:34.796Z,16.29
2023-04-17T13:34:06.602Z,16.25
2023-04-17T13:36:37.648Z,16.21
2023-04-17T13:39:08.991Z,16.17
2023-04-17T13:41:40.540Z,16.17
2023-04-17T13:44:14.132Z,16.08
2023-04-17T13:46:46.428Z,16.17
2023-04-17T13:49:17.696Z,16.07
2023-04-17T13:51:48.835Z,16.25
2023-04-17T13:54:21.106Z,16.29
2023-04-17T13:56:52.712Z,16.13
2023-04-17T13:59:24.414Z,16.17
2023-04-17T14:01:55.447Z,16.20
2023-04-17T14:04:26.946Z,16.14
2023-04-17T14:06:58.419Z,16.09
2023-04-17T14:09:29.990Z,16.12
2023-04-17T14:12:01.562Z,16.30
2023-04-17T14:14:32.811Z,16.29
2023-04-17T14:17:04.373Z,16.21
2023-04-17T14:19:35.078Z,16.17
2023-04-17T14:22:06.687Z,16.21
2023-04-17T14:24:38.181Z,16.20
2023-04-17T14:27:10.512Z,16.19
2023-04-17T14:29:41.701Z,16.24
2023-04-17T14:32:12.866Z,16.37
2023-04-17T14:34:44.037Z,16.32
2023-04-17T14:37:15.209Z,16.33
2023-04-17T14:39:46.542Z,16.38
2023-04-17T14:42:17.625Z,16.38
2023-04-17T14:44:49.246Z,16.33
2023-04-17T14:47:21.111Z,16.28
2023-04-17T14:49:53.040Z,16.36
2023-04-17T14:52:24.634Z,16.38
2023-04-17T14:54:56.782Z,16.38
2023-04-17T14:57:28.362Z,16.43
2023-04-17T15:00:00.216Z,16.51
2023-04-17T15:02:39.756Z,16.50
2023-04-17T15:05:11.880Z,16.56
2023-04-17T15:07:43.608Z,16.61
2023-04-17T15:10:15.018Z,16.57
2023-04-17T15:12:47.094Z,16.65
2023-04-17T15:15:18.724Z,16.58
2023-04-17T15:17:49.969Z,16.69
2023-04-17T15:20:26.219Z,16.60
2023-04-17T15:23:00.572Z,16.64
2023-04-17T15:25:32.270Z,16.62
2023-04-17T15:28:04.258Z,16.60
2023-04-17T15:30:35.976Z,16.61
2023-04-17T15:33:09.848Z,16.51
2023-04-17T15:35:41.779Z,16.48
2023-04-17T15:38:13.366Z,16.63
2023-04-17T15:40:44.465Z,16.64
2023-04-17T15:43:15.763Z,16.60
2023-04-17T15:45:47.335Z,16.64
2023-04-17T15:48:19.514Z,16.63
2023-04-17T15:50:50.917Z,16.60
2023-04-17T15:53:22.578Z,16.59
2023-04-17T15:55:55.102Z,16.63
2023-04-17T15:58:26.537Z,16.71
2023-04-17T16:00:57.862Z,16.68
2023-04-17T16:03:29.407Z,16.62
2023-04-17T16:06:00.783Z,16.67
2023-04-17T16:08:32.495Z,16.69
2023-04-17T16:11:03.181Z,16.67
2023-04-17T16:13:34.735Z,16.67
2023-04-17T16:16:06.420Z,16.61
2023-04-17T16:18:38.047Z,16.66
2023-04-17T16:21:13.128Z,16.69
2023-04-17T16:23:47.148Z,16.65
2023-04-17T16:26:18.992Z,16.70
2023-04-17T16:28:53.782Z,16.61
2023-04-17T16:31:27.355Z,16.71
2023-04-17T16:33:58.997Z,16.72
2023-04-17T16:36:33.541Z,16.77
2023-04-17T16:39:07.196Z,16.73
2023-04-17T16:41:37.743Z,16.68
2023-04-17T16:44:08.842Z,16.73
2023-04-17T16:47:02.977Z,16.71
2023-04-17T16:49:31.212Z,16.71
2023-04-17T16:52:02.532Z,16.64
2023-04-17T16:54:33.863Z,16.63
2023-04-17T16:57:07.346Z,16.66
2023-04-17T16:59:38.281Z,16.64
2023-04-17T17:02:09.994Z,16.65
2023-04-17T17:04:41.517Z,16.59
2023-04-17T17:07:12.159Z,16.56
2023-04-17T17:09:43.678Z,16.52
2023-04-17T17:12:15.092Z,16.46
2023-04-17T17:14:46.208Z,16.45
2023-04-17T17:17:17.317Z,16.25
2023-04-17T17:19:48.700Z,16.26
2023-04-17T17:22:19.905Z,16.21
2023-04-17T17:24:51.603Z,16.16
2023-04-17T17:27:23.026Z,16.04
2023-04-17T17:29:59.693Z,16.08
2023-04-17T17:32:34.405Z,16.02
2023-04-17T17:35:05.873Z,16.05
2023-04-17T17:37:36.994Z,15.91
2023-04-17T17:40:09.538Z,15.95
2023-04-17T17:42:41.260Z,15.91
2023-04-17T17:45:13.014Z,15.97
2023-04-17T17:47:44.303Z,16.02
2023-04-17T17:50:15.257Z,15.99
2023-04-17T17:52:46.237Z,16.00
2023-04-17T17:55:18.196Z,16.03
2023-04-17T17:57:51.132Z,15.99
2023-04-17T18:00:22.897Z,16.04
2023-04-17T18:02:54.529Z,16.09
2023-04-17T18:05:26.812Z,16.10
2023-04-17T18:07:58.697Z,16.11
2023-04-17T18:10:29.418Z,16.05
2023-04-17T18:13:00.569Z,16.03
2023-04-17T18:15:32.505Z,16.04
2023-04-17T18:18:05.143Z,16.07
2023-04-17T18:20:40.781Z,16.05
2023-04-17T18:23:12.426Z,16.03
2023-04-17T18:25:43.693Z,15.97
2023-04-17T18:28:15.244Z,16.01
2023-04-17T18:30:47.261Z,16.05
2023-04-17T18:33:19.174Z,16.04
2023-04-17T18:35:50.722Z,16.05
2023-04-17T18:38:22.951Z,15.98
2023-04-17T18:40:58.820Z,16.09
2023-04-17T18:43:35.014Z,16.03
2023-04-17T18:46:09.681Z,16.06
2023-04-17T18:48:40.736Z,16.12
2023-04-17T18:51:16.269Z,16.11
2023-04-17T18:53:47.708Z,16.13
2023-04-17T18:56:19.438Z,16.21
2023-04-17T18:58:52.544Z,16.14
2023-04-17T19:01:24.160Z,16.27
2023-04-17T19:03:55.285Z,16.33
2023-04-17T19:06:27.968Z,16.34
2023-04-17T19:08:59.179Z,16.47
2023-04-17T19:11:30.420Z,16.44
2023-04-17T19:14:01.765Z,16.50
2023-04-17T19:16:33.035Z,16.54
2023-04-17T19:19:04.184Z,16.54
2023-04-17T19:21:35.412Z,16.53
2023-04-17T19:24:06.608Z,16.67
2023-04-17T19:26:38.506Z,16.83
2023-04-17T19:29:09.897Z,16.98
2023-04-17T19:31:41.723Z,16.97
2023-04-17T19:34:12.112Z,17.00
2023-04-17T19:36:44.931Z,17.08
2023-04-17T19:39:16.655Z,17.05
2023-04-17T19:41:52.268Z,17.09
2023-04-17T19:44:23.937Z,17.14
2023-04-17T19:46:56.282Z,17.20
2023-04-17T19:49:27.691Z,17.28
2023-04-17T19:51:58.856Z,17.38
2023-04-17T19:54:30.255Z,17.38
2023-04-17T19:57:01.660Z,17.54
2023-04-17T19:59:32.755Z,17.56
2023-04-17T20:02:04.185Z,17.57
2023-04-17T20:04:35.599Z,17.67
2023-04-17T20:07:06.698Z,17.83
2023-04-17T20:09:41.683Z,17.90
2023-04-17T20:12:14.758Z,17.90
2023-04-17T20:14:47.069Z,17.97
2023-04-17T20:17:17.671Z,18.11
2023-04-17T20:19:51.904Z,18.20
2023-04-17T20:22:23.228Z,18.30
2023-04-17T20:24:54.557Z,18.37
2023-04-17T20:27:26.193Z,18.34
2023-04-17T20:29:56.732Z,18.39
2023-04-17T20:32:28.035Z,18.34
2023-04-17T20:34:59.439Z,18.50
2023-04-17T20:37:30.889Z,18.56
2023-04-17T20:40:02.229Z,18.72
2023-04-17T20:42:34.875Z,18.76
2023-04-17T20:45:08.829Z,18.89
2023-04-17T20:47:52.928Z,19.01
2023-04-17T20:50:27.666Z,19.14
2023-04-17T20:52:58.931Z,19.16
2023-04-17T20:55:30.280Z,19.19
2023-04-17T20:58:01.297Z,19.31
2023-04-17T21:00:33.209Z,19.28
2023-04-17T21:03:04.931Z,19.17
2023-04-17T21:05:36.753Z,19.14
2023-04-17T21:08:08.080Z,19.00
2023-04-17T21:10:39.161Z,19.09
2023-04-17T21:13:10.601Z,19.14
2023-04-17T21:15:43.755Z,19.41
2023-04-17T21:18:15.286Z,19.44
2023-04-17T21:20:47.360Z,19.57
2023-04-17T21:23:19.360Z,19.63
2023-04-17T21:25:51.926Z,19.64
2023-04-17T21:28:23.362Z,19.68
2023-04-17T21:30:54.779Z,19.72
2023-04-17T21:33:26.210Z,19.68
2023-04-17T21:35:57.910Z,19.75
2023-04-17T21:38:29.073Z,19.79
2023-04-17T21:41:00.569Z,19.66
2023-04-17T21:43:33.060Z,20.23
2023-04-17T21:46:04.529Z,20.59
2023-04-17T21:48:35.872Z,20.22
2023-04-17T21:51:07.679Z,20.71
2023-04-17T21:53:40.067Z,20.57
2023-04-17T21:56:11.674Z,20.64
2023-04-17T21:58:43.139Z,20.33
2023-04-17T22:01:15.521Z,20.56
2023-04-17T22:03:47.382Z,20.93
2023-04-17T22:06:18.723Z,21.34
2023-04-17T22:08:50.041Z,21.06
2023-04-17T22:11:21.398Z,21.12
2023-04-17T22:13:52.620Z,21.03
2023-04-17T22:16:23.794Z,20.97
2023-04-17T22:18:55.623Z,20.99
2023-04-17T22:21:28.378Z,20.87
2023-04-17T22:23:59.594Z,20.90
2023-04-17T22:26:33.091Z,21.10
2023-04-17T22:29:04.709Z,21.11
2023-04-17T22:31:35.546Z,21.23
2023-04-17T22:34:06.825Z,21.70
2023-04-17T22:36:39.101Z,21.81
2023-04-17T22:39:10.506Z,21.99
2023-04-17T22:41:41.195Z,22.07
2023-04-17T22:44:12.598Z,22.01
2023-04-17T22:46:44.290Z,22.08
2023-04-17T22:49:15.964Z,21.67
2023-04-17T22:51:47.292Z,21.69
2023-04-17T22:54:22.716Z,21.65
2023-04-17T22:56:54.231Z,21.59
2023-04-17T22:59:25.483Z,21.67
2023-04-17T23:01:57.033Z,21.57
2023-04-17T23:04:27.663Z,21.53
2023-04-17T23:06:59.753Z,21.32
2023-04-17T23:09:30.875Z,21.28
2023-04-17T23:12:03.463Z,21.18
2023-04-17T23:14:35.147Z,20.99
2023-04-17T23:17:07.330Z,20.57
2023-04-17T23:19:39.057Z,20.48
2023-04-17T23:22:11.486Z,19.98
2023-04-17T23:24:42.893Z,19.96
2023-04-17T23:27:14.074Z,20.09
2023-04-17T23:29:45.287Z,20.17
2023-04-17T23:32:17.005Z,20.35
2023-04-17T23:34:47.366Z,20.51
2023-04-17T23:37:19.021Z,21.42
2023-04-17T23:39:50.708Z,21.77
2023-04-17T23:42:21.881Z,21.23
2023-04-17T23:44:53.089Z,21.06
2023-04-17T23:47:24.327Z,21.28
2023-04-17T23:49:55.852Z,20.99
2023-04-17T23:52:27.548Z,20.78
2023-04-17T23:54:58.962Z,21.25
2023-04-17T23:57:30.114Z,20.81
